Time;durP1;ratioP1;P1;durP2;ratioP2;P2;SDS_P1;SDS_P2;PMS_P1;PMS_P2;Temp;Humidity;BMP_temperature;BMP_pressure;BME280_temperature;BME280_humidity;BME280_pressure;Samples;Min_cycle;Max_cycle;Signal;HPM_P1;HPM_P2
2022/07/15 00:01:59;;;;;;;9.57;2.47;;;16.30;93.10;;;;;;4955502;28;95742;-70
2022/07/15 00:04:26;;;;;;;4.00;2.40;;;16.30;92.90;;;;;;4954266;28;106417;-70
2022/07/15 00:06:53;;;;;;;5.93;1.98;;;16.30;92.80;;;;;;4971573;28;92655;-70
2022/07/15 00:09:20;;;;;;;6.80;2.40;;;16.30;92.80;;;;;;4956845;28;92442;-70
2022/07/15 00:11:47;;;;;;;9.20;2.92;;;16.30;92.70;;;;;;4955060;28;94936;-70
2022/07/15 00:14:14;;;;;;;7.10;2.30;;;16.40;92.70;;;;;;4956596;28;92996;-70
2022/07/15 00:16:41;;;;;;;5.28;1.77;;;16.40;92.50;;;;;;4956574;28;92405;-70
2022/07/15 00:19:08;;;;;;;10.65;2.55;;;16.40;92.50;;;;;;4957014;28;91893;-70
2022/07/15 00:21:34;;;;;;;5.65;2.38;;;16.40;92.50;;;;;;4954804;28;92542;-70
2022/07/15 00:24:01;;;;;;;4.28;2.20;;;16.40;92.60;;;;;;4971230;28;93062;-70
2022/07/15 00:26:28;;;;;;;6.70;2.35;;;16.40;92.60;;;;;;4969939;28;94846;-70
2022/07/15 00:29:00;;;;;;;5.28;2.13;;;16.40;92.60;;;;;;4971032;28;92716;-70
2022/07/15 00:31:27;;;;;;;5.20;2.05;;;16.40;92.50;;;;;;4938610;28;96101;-70
2022/07/15 00:33:54;;;;;;;8.05;2.03;;;16.50;92.50;;;;;;4954725;28;95460;-70
2022/07/15 00:36:21;;;;;;;5.55;2.45;;;16.50;92.40;;;;;;4954959;28;92435;-70
2022/07/15 00:38:48;;;;;;;10.35;2.28;;;16.50;92.40;;;;;;4954939;28;92515;-70
2022/07/15 00:41:15;;;;;;;7.65;3.75;;;16.50;92.40;;;;;;4938544;28;101199;-70
2022/07/15 00:43:42;;;;;;;6.43;2.80;;;16.50;92.40;;;;;;4954873;28;94136;-70
2022/07/15 00:46:09;;;;;;;5.53;2.63;;;16.50;92.40;;;;;;4956729;28;92482;-70
2022/07/15 00:48:37;;;;;;;6.63;2.60;;;16.50;92.40;;;;;;4955120;28;93029;-70
2022/07/15 00:51:04;;;;;;;4.15;3.05;;;16.50;92.40;;;;;;4937274;28;98277;-70
2022/07/15 00:53:33;;;;;;;8.52;2.53;;;16.50;92.40;;;;;;4956011;28;95382;-70
2022/07/15 00:56:02;;;;;;;6.35;2.85;;;16.40;92.40;;;;;;4956439;28;92343;-70
2022/07/15 00:58:31;;;;;;;6.18;1.70;;;16.50;92.40;;;;;;4954598;28;92662;-70
2022/07/15 01:00:59;;;;;;;4.97;2.22;;;16.40;92.40;;;;;;4954404;28;95970;-70
2022/07/15 01:03:30;;;;;;;7.85;2.33;;;16.50;92.60;;;;;;4955740;28;92988;-70
2022/07/15 01:05:57;;;;;;;7.88;1.80;;;16.40;92.50;;;;;;4954968;28;93026;-70
2022/07/15 01:08:25;;;;;;;5.93;2.88;;;16.50;92.50;;;;;;4961821;28;91688;-70
2022/07/15 01:10:52;;;;;;;6.20;2.47;;;16.50;92.50;;;;;;4961060;28;95650;-70
2022/07/15 01:13:21;;;;;;;8.30;3.55;;;16.50;92.40;;;;;;4960890;28;95868;-70
2022/07/15 01:15:49;;;;;;;7.95;2.75;;;16.50;92.40;;;;;;4959867;28;94962;-70
2022/07/15 01:18:17;;;;;;;7.65;3.10;;;16.60;92.60;;;;;;4962507;28;92521;-70
2022/07/15 01:20:48;;;;;;;5.53;1.70;;;16.60;92.70;;;;;;4960691;28;95941;-70
2022/07/15 01:23:17;;;;;;;5.28;2.38;;;16.60;92.70;;;;;;4961126;28;95623;-70
2022/07/15 01:26:11;;;;;;;6.68;2.65;;;16.50;92.60;;;;;;4960680;28;92525;-70
2022/07/15 01:28:42;;;;;;;6.00;2.40;;;16.50;92.60;;;;;;4960923;28;92927;-70
2022/07/15 01:31:10;;;;;;;7.60;3.78;;;16.50;92.60;;;;;;4960993;28;95045;-70
2022/07/15 01:33:38;;;;;;;5.20;2.88;;;16.50;92.70;;;;;;4960990;28;95534;-70
2022/07/15 01:36:06;;;;;;;6.22;1.83;;;16.50;92.60;;;;;;4944720;28;92592;-70
2022/07/15 01:38:35;;;;;;;5.70;2.50;;;16.50;92.70;;;;;;4944563;28;92546;-70
2022/07/15 01:41:14;;;;;;;8.75;3.33;;;16.40;92.70;;;;;;4959610;28;97792;-70
2022/07/15 01:43:41;;;;;;;7.93;2.75;;;16.40;92.70;;;;;;4944368;28;97702;-70
2022/07/15 01:46:09;;;;;;;5.57;2.95;;;16.40;92.70;;;;;;4961116;28;92490;-70
2022/07/15 01:51:45;;;;;;;5.68;1.80;;;16.30;92.70;;;;;;4960294;28;95759;-70
2022/07/15 01:54:12;;;;;;;7.13;3.38;;;16.30;92.90;;;;;;4960427;28;95307;-70
2022/07/15 01:56:41;;;;;;;4.63;2.53;;;16.30;92.90;;;;;;4960454;28;92518;-70
2022/07/15 01:59:08;;;;;;;10.60;2.30;;;16.30;93.00;;;;;;4977580;28;92354;-70
2022/07/15 02:01:35;;;;;;;8.25;3.13;;;16.30;93.00;;;;;;4959961;28;95605;-70
2022/07/15 02:04:12;;;;;;;6.90;2.35;;;16.20;93.00;;;;;;4945191;28;95326;-70
2022/07/15 02:06:40;;;;;;;9.27;2.15;;;16.20;93.10;;;;;;4959068;28;94832;-70
2022/07/15 02:09:08;;;;;;;7.57;2.20;;;16.10;93.20;;;;;;4960571;28;92507;-70
2022/07/15 02:11:40;;;;;;;9.82;2.35;;;16.10;93.30;;;;;;4960196;28;95360;-70
2022/07/15 02:14:07;;;;;;;11.10;2.22;;;16.00;93.50;;;;;;4944276;28;95546;-70
2022/07/15 02:16:35;;;;;;;5.25;2.25;;;15.90;93.60;;;;;;4960405;28;92475;-70
2022/07/15 02:19:08;;;;;;;6.38;2.80;;;15.90;93.80;;;;;;4957988;28;92593;-70
2022/07/15 02:21:36;;;;;;;7.50;3.63;;;15.80;93.90;;;;;;4958105;28;93168;-70
2022/07/15 02:24:03;;;;;;;5.75;2.97;;;15.80;94.10;;;;;;4957333;28;95220;-70
2022/07/15 02:26:31;;;;;;;7.70;2.47;;;15.80;94.10;;;;;;4957003;28;92464;-70
2022/07/15 02:28:58;;;;;;;8.35;2.00;;;15.70;94.20;;;;;;4940677;28;92442;-70
2022/07/15 02:31:27;;;;;;;9.98;2.05;;;15.70;94.20;;;;;;4955502;28;98133;-70
2022/07/15 02:33:55;;;;;;;8.48;3.42;;;15.70;94.30;;;;;;4940398;28;97860;-70
2022/07/15 02:36:26;;;;;;;6.50;3.15;;;15.80;94.40;;;;;;4957056;28;92576;-70
2022/07/15 02:38:52;;;;;;;5.43;1.92;;;15.80;94.40;;;;;;4940565;28;92520;-70
2022/07/15 02:41:20;;;;;;;7.82;2.25;;;15.80;94.40;;;;;;4956695;28;95027;-70
2022/07/15 02:43:48;;;;;;;6.95;2.97;;;15.80;94.40;;;;;;4956385;28;95698;-70
2022/07/15 02:46:15;;;;;;;9.85;2.78;;;15.80;94.40;;;;;;4956866;28;92503;-70
2022/07/15 02:48:43;;;;;;;5.63;2.88;;;15.80;94.30;;;;;;4956950;28;92140;-70
2022/07/15 02:51:11;;;;;;;8.02;2.78;;;15.80;94.30;;;;;;4956487;28;95198;-70
2022/07/15 02:53:39;;;;;;;6.30;1.80;;;15.80;94.40;;;;;;4956267;28;95421;-70
2022/07/15 02:56:11;;;;;;;10.63;3.70;;;15.70;94.40;;;;;;4955690;28;95093;-70
2022/07/15 02:58:38;;;;;;;6.40;2.85;;;15.70;94.40;;;;;;4956365;28;92555;-70
2022/07/15 03:01:06;;;;;;;7.38;2.30;;;15.60;94.50;;;;;;4956424;28;95496;-70
2022/07/15 03:03:34;;;;;;;5.75;3.05;;;15.60;94.50;;;;;;4956506;28;95235;-70
2022/07/15 03:06:03;;;;;;;5.85;2.28;;;15.60;94.60;;;;;;4955739;28;92599;-70
2022/07/15 03:08:30;;;;;;;6.20;3.50;;;15.50;94.60;;;;;;4940252;28;92544;-70
2022/07/15 03:10:57;;;;;;;6.03;2.15;;;15.50;94.70;;;;;;4956155;28;94306;-70
2022/07/15 03:13:25;;;;;;;7.03;1.77;;;15.40;94.80;;;;;;4956569;28;95275;-70
2022/07/15 03:15:52;;;;;;;7.10;3.38;;;15.40;94.80;;;;;;4956433;28;92943;-70
2022/07/15 03:18:21;;;;;;;11.80;3.58;;;15.40;94.80;;;;;;4956046;28;92586;-70
2022/07/15 03:20:49;;;;;;;7.13;3.42;;;15.30;94.80;;;;;;4954623;28;98101;-70
2022/07/15 03:23:16;;;;;;;7.32;2.30;;;15.30;94.90;;;;;;4956034;28;97744;-70
2022/07/15 03:25:44;;;;;;;6.43;2.05;;;15.20;94.80;;;;;;4956346;28;92691;-70
2022/07/15 03:28:13;;;;;;;6.55;2.35;;;15.20;94.90;;;;;;4956136;28;92480;-70
2022/07/15 03:30:41;;;;;;;5.43;1.70;;;15.10;95.20;;;;;;4954816;28;95311;-70
2022/07/15 03:33:10;;;;;;;6.03;2.47;;;15.10;95.00;;;;;;4939937;28;95130;-70
2022/07/15 03:35:37;;;;;;;7.85;2.25;;;15.10;95.00;;;;;;4956182;28;92524;-70
2022/07/15 03:38:04;;;;;;;4.70;2.90;;;15.00;95.00;;;;;;4940202;28;92435;-70
2022/07/15 03:40:31;;;;;;;6.18;2.72;;;15.00;95.10;;;;;;4939691;28;95878;-70
2022/07/15 03:42:58;;;;;;;8.13;3.15;;;15.00;95.10;;;;;;4939425;28;94978;-70
2022/07/15 03:45:25;;;;;;;5.00;1.98;;;15.00;95.10;;;;;;4954724;28;95182;-70
2022/07/15 03:47:52;;;;;;;9.25;1.98;;;15.00;95.10;;;;;;4955533;28;92779;-70
2022/07/15 03:50:20;;;;;;;4.18;2.38;;;15.00;95.10;;;;;;4955786;28;94391;-70
2022/07/15 03:52:47;;;;;;;7.13;2.15;;;14.90;95.00;;;;;;4955741;28;92508;-70
2022/07/15 03:55:13;;;;;;;10.52;2.10;;;14.90;95.00;;;;;;4957249;28;92381;-70
2022/07/15 03:57:40;;;;;;;6.82;1.55;;;14.90;95.00;;;;;;4939592;28;92469;-70
2022/07/15 04:00:11;;;;;;;6.90;2.13;;;14.90;95.00;;;;;;4955173;28;94531;-70
2022/07/15 04:02:41;;;;;;;6.50;2.15;;;14.80;95.00;;;;;;4969518;28;92756;-70
2022/07/15 04:05:13;;;;;;;5.93;2.20;;;14.80;95.00;;;;;;4939908;28;92474;-70
2022/07/15 04:07:40;;;;;;;4.15;1.60;;;14.80;95.00;;;;;;4971730;28;92541;-70
2022/07/15 04:10:07;;;;;;;5.93;2.17;;;14.80;95.10;;;;;;4953810;28;98159;-70
2022/07/15 04:17:24;;;;;;;9.40;2.17;;;15.00;95.20;;;;;;4955354;28;92394;-70
2022/07/15 04:19:51;;;;;;;7.72;2.35;;;15.10;95.10;;;;;;4955287;28;92508;-70
2022/07/15 04:22:18;;;;;;;5.10;2.42;;;15.20;94.90;;;;;;4954599;28;95939;-70
2022/07/15 04:24:49;;;;;;;10.10;3.78;;;15.20;94.80;;;;;;4955196;28;95461;-70
2022/07/15 04:27:17;;;;;;;6.50;2.30;;;15.30;94.80;;;;;;4955103;28;92570;-70
2022/07/15 04:29:45;;;;;;;5.43;2.63;;;15.30;94.80;;;;;;4955763;28;92278;-70
2022/07/15 04:32:13;;;;;;;4.15;2.42;;;15.40;94.80;;;;;;4955150;28;94378;-70
2022/07/15 04:34:45;;;;;;;6.55;1.90;;;15.40;94.70;;;;;;4954989;28;95441;-70
2022/07/15 04:37:12;;;;;;;7.32;2.67;;;15.50;94.80;;;;;;4937903;28;94983;-70
2022/07/15 04:39:44;;;;;;;7.57;2.90;;;15.50;94.70;;;;;;4939623;28;92666;-70
2022/07/15 04:42:12;;;;;;;9.18;2.40;;;15.50;94.70;;;;;;4938638;28;95716;-70
2022/07/15 04:44:42;;;;;;;4.97;2.53;;;15.60;94.80;;;;;;4954671;28;94914;-70
2022/07/15 04:47:16;;;;;;;6.35;2.70;;;15.70;94.70;;;;;;4955048;28;92430;-70
2022/07/15 04:52:52;;;;;;;6.43;3.75;;;15.70;94.60;;;;;;4953554;28;95441;-70
2022/07/15 04:55:19;;;;;;;4.30;1.95;;;15.70;94.60;;;;;;4950832;28;95177;-70
2022/07/15 04:57:52;;;;;;;6.88;2.40;;;15.80;94.60;;;;;;4954779;28;92471;-70
2022/07/15 05:00:19;;;;;;;4.68;2.15;;;15.90;94.50;;;;;;4954617;28;92522;-70
2022/07/15 05:02:46;;;;;;;3.38;1.75;;;16.00;94.50;;;;;;4937185;28;98018;-70
2022/07/15 05:05:15;;;;;;;7.38;1.80;;;16.00;94.30;;;;;;4953464;28;97721;-70
2022/07/15 05:07:42;;;;;;;8.00;3.85;;;16.10;94.30;;;;;;4954525;28;92444;-70
2022/07/15 05:10:11;;;;;;;7.25;2.58;;;16.20;94.20;;;;;;4954640;28;92615;-70
2022/07/15 05:12:43;;;;;;;5.13;3.00;;;16.20;94.20;;;;;;4954352;28;94376;-70
2022/07/15 05:15:10;;;;;;;6.70;2.35;;;16.30;94.20;;;;;;4938481;28;95189;-70
2022/07/15 05:17:41;;;;;;;5.00;2.10;;;16.30;94.10;;;;;;4954428;28;92444;-70
2022/07/15 05:20:13;;;;;;;8.57;1.90;;;16.40;94.00;;;;;;4939459;28;91777;-70
2022/07/15 05:22:40;;;;;;;5.72;1.83;;;16.40;94.10;;;;;;4954347;28;93204;-70
2022/07/15 05:25:07;;;;;;;4.22;2.42;;;16.40;94.00;;;;;;4954142;28;94997;-70
2022/07/15 05:27:35;;;;;;;5.00;2.60;;;16.40;94.10;;;;;;4953229;28;94839;-70
2022/07/15 05:30:02;;;;;;;5.03;2.17;;;16.50;94.10;;;;;;4954454;28;92652;-70
2022/07/15 05:32:31;;;;;;;5.22;2.53;;;16.70;94.10;;;;;;4953972;28;95320;-70
2022/07/15 05:35:00;;;;;;;5.05;3.15;;;17.00;93.70;;;;;;4953917;28;95172;-70
2022/07/15 05:37:28;;;;;;;4.82;2.05;;;17.20;93.30;;;;;;4954207;28;92545;-70
2022/07/15 05:39:55;;;;;;;4.15;1.92;;;17.40;92.90;;;;;;4938267;28;92514;-70
2022/07/15 05:42:39;;;;;;;3.15;1.42;;;17.60;92.50;;;;;;4954071;28;95524;-70
2022/07/15 05:45:08;;;;;;;3.10;1.35;;;17.70;92.20;;;;;;4938149;28;95466;-70
2022/07/15 05:47:45;;;;;;;6.13;2.97;;;17.90;91.90;;;;;;4938512;28;92557;-70
2022/07/15 05:50:12;;;;;;;4.05;1.23;;;18.00;91.50;;;;;;4954163;28;92490;-70
2022/07/15 05:52:39;;;;;;;9.30;1.52;;;18.10;91.20;;;;;;4952506;28;97761;-70
2022/07/15 05:55:07;;;;;;;2.40;1.33;;;18.20;90.90;;;;;;4955845;28;97911;-70
2022/07/15 05:57:34;;;;;;;2.95;2.50;;;18.30;90.70;;;;;;4957364;28;92452;-70
2022/07/15 06:00:07;;;;;;;8.60;2.55;;;18.40;90.50;;;;;;4959243;28;92488;-71
2022/07/15 06:02:39;;;;;;;2.70;1.30;;;18.30;90.40;;;;;;4958365;28;92849;-70
2022/07/15 06:05:12;;;;;;;3.65;1.20;;;18.30;90.40;;;;;;4956574;28;95321;-70
2022/07/15 06:07:44;;;;;;;3.22;1.13;;;18.20;90.40;;;;;;4957090;28;92409;-70
2022/07/15 06:10:13;;;;;;;3.33;1.83;;;18.20;90.60;;;;;;4941888;28;91773;-70
2022/07/15 06:12:40;;;;;;;3.88;1.38;;;18.20;90.50;;;;;;4957048;28;94989;-70
2022/07/15 06:15:08;;;;;;;2.45;0.90;;;18.20;90.40;;;;;;4956835;28;95416;-70
2022/07/15 06:17:35;;;;;;;2.20;2.03;;;18.20;90.40;;;;;;4939913;28;94874;-70
2022/07/15 06:20:05;;;;;;;3.40;1.15;;;18.30;90.40;;;;;;4941332;28;92572;-70
2022/07/15 06:22:38;;;;;;;3.90;1.70;;;18.40;90.30;;;;;;4956869;28;95501;-70
2022/07/15 06:25:05;;;;;;;5.50;1.25;;;18.50;90.20;;;;;;4956680;28;95648;-70
2022/07/15 06:27:32;;;;;;;2.33;2.17;;;18.60;90.10;;;;;;4940809;28;92422;-70
2022/07/15 06:30:00;;;;;;;2.33;1.38;;;18.80;89.90;;;;;;4940802;28;92645;-70
2022/07/15 06:32:26;;;;;;;4.07;0.80;;;19.00;89.50;;;;;;4956794;28;95837;-70
2022/07/15 06:34:54;;;;;;;4.78;2.92;;;19.10;89.10;;;;;;4957217;28;94019;-71
2022/07/15 06:37:21;;;;;;;2.60;2.05;;;19.20;88.80;;;;;;4957100;28;92539;-70
2022/07/15 06:39:48;;;;;;;2.83;1.20;;;19.20;88.60;;;;;;4956751;28;92463;-70
2022/07/15 06:42:15;;;;;;;3.63;1.00;;;19.30;88.60;;;;;;4954995;28;98330;-71
2022/07/15 06:44:55;;;;;;;4.28;1.83;;;19.50;88.20;;;;;;4956254;28;97641;-70
2022/07/15 06:47:22;;;;;;;3.97;1.10;;;19.80;87.40;;;;;;4973368;28;92970;-71
2022/07/15 06:49:50;;;;;;;5.35;2.05;;;20.20;86.00;;;;;;4956513;28;92768;-71
2022/07/15 06:52:18;;;;;;;3.95;1.08;;;20.40;85.30;;;;;;4956232;28;94182;-70
2022/07/15 06:54:46;;;;;;;2.70;1.88;;;20.60;84.90;;;;;;4940233;28;95530;-71
2022/07/15 06:57:16;;;;;;;1.88;1.45;;;20.80;83.90;;;;;;4957060;28;92536;-76
2022/07/15 06:59:46;;;;;;;3.22;1.20;;;20.80;83.30;;;;;;4956984;28;92257;-71
2022/07/15 07:02:13;;;;;;;2.17;0.73;;;20.80;82.90;;;;;;4955929;28;95844;-71
2022/07/15 07:04:44;;;;;;;3.63;1.40;;;20.90;81.70;;;;;;4955529;28;95447;-71
2022/07/15 07:07:13;;;;;;;2.00;0.90;;;21.00;81.50;;;;;;4939256;28;94762;-71
2022/07/15 07:09:40;;;;;;;3.55;2.40;;;21.10;80.80;;;;;;4940079;28;92478;-71
2022/07/15 07:12:08;;;;;;;3.22;1.63;;;21.20;80.80;;;;;;4972143;28;96150;-71
2022/07/15 07:14:34;;;;;;;3.28;1.10;;;21.30;80.20;;;;;;4956415;28;93978;-71
2022/07/15 07:17:01;;;;;;;2.83;2.38;;;21.40;80.00;;;;;;4957721;28;92923;-71
2022/07/15 07:19:28;;;;;;;4.22;1.58;;;21.30;79.00;;;;;;4957909;28;92405;-71
2022/07/15 07:21:55;;;;;;;2.67;1.20;;;21.30;78.70;;;;;;4955761;28;93350;-71
2022/07/15 07:24:22;;;;;;;2.45;1.20;;;21.20;79.30;;;;;;4972839;28;93013;-71
2022/07/15 07:26:49;;;;;;;5.05;1.00;;;21.10;79.50;;;;;;4956195;28;92984;-71
2022/07/15 07:29:22;;;;;;;3.38;2.40;;;21.00;80.80;;;;;;4956298;28;92557;-71
2022/07/15 07:31:50;;;;;;;2.90;0.90;;;20.80;81.30;;;;;;4954569;28;98088;-71
2022/07/15 07:34:17;;;;;;;3.70;2.25;;;20.70;81.90;;;;;;4957352;28;95177;-71
2022/07/15 07:36:45;;;;;;;3.03;2.40;;;20.70;81.80;;;;;;4957398;28;92380;-71
2022/07/15 07:39:13;;;;;;;5.43;1.13;;;20.80;81.80;;;;;;4956284;28;92558;-71
2022/07/15 07:41:40;;;;;;;3.20;1.77;;;21.10;81.50;;;;;;4956951;28;93241;-71
2022/07/15 07:44:07;;;;;;;2.75;1.52;;;21.40;79.50;;;;;;4956728;28;107101;-71
2022/07/15 07:46:34;;;;;;;2.10;1.10;;;21.70;78.10;;;;;;4956061;28;92507;-71
2022/07/15 07:49:01;;;;;;;2.70;2.10;;;22.00;77.30;;;;;;4957320;28;92704;-71
2022/07/15 07:51:48;;;;;;;3.33;0.85;;;22.20;74.90;;;;;;4969080;28;93327;-71
2022/07/15 07:54:17;;;;;;;3.03;0.93;;;22.30;74.30;;;;;;4939650;28;98097;-70
2022/07/15 07:56:45;;;;;;;2.55;2.40;;;22.30;73.90;;;;;;4970593;28;95372;-70
2022/07/15 07:59:12;;;;;;;2.00;1.65;;;22.40;74.20;;;;;;4957249;28;92413;-70
2022/07/15 08:01:39;;;;;;;2.35;1.10;;;22.50;74.10;;;;;;4986449;28;93826;-70
2022/07/15 08:04:06;;;;;;;1.75;0.90;;;22.60;74.00;;;;;;4976369;28;93036;-70
2022/07/15 08:06:38;;;;;;;3.65;2.45;;;22.60;73.50;;;;;;4976840;28;92734;-70
2022/07/15 08:09:05;;;;;;;3.15;2.15;;;22.60;74.30;;;;;;4974764;28;92578;-70
2022/07/15 08:11:32;;;;;;;1.75;1.10;;;23.10;74.20;;;;;;4975805;28;93308;-70
2022/07/15 08:14:00;;;;;;;3.83;3.05;;;24.00;73.50;;;;;;4975292;28;92897;-70
2022/07/15 08:16:27;;;;;;;2.95;2.20;;;25.40;70.80;;;;;;4958077;28;92492;-70
2022/07/15 08:18:54;;;;;;;1.85;0.73;;;26.70;67.10;;;;;;4974941;28;92490;-70
2022/07/15 08:21:21;;;;;;;1.38;0.75;;;27.80;62.80;;;;;;4973729;28;95706;-70
2022/07/15 08:23:48;;;;;;;2.50;1.40;;;28.40;60.30;;;;;;4975937;28;95408;-70
2022/07/15 08:26:22;;;;;;;1.48;1.10;;;28.70;57.80;;;;;;4976331;28;92355;-70
2022/07/15 08:28:51;;;;;;;1.27;1.00;;;28.60;57.00;;;;;;4976183;28;92377;-70
2022/07/15 08:31:33;;;;;;;1.80;1.23;;;28.20;56.30;;;;;;4975905;28;95716;-71
2022/07/15 08:34:18;;;;;;;2.58;1.10;;;27.50;57.10;;;;;;4974689;28;95556;-70
2022/07/15 08:36:45;;;;;;;3.28;0.80;;;27.00;57.50;;;;;;4974414;28;97245;-70
2022/07/15 08:39:12;;;;;;;4.57;0.60;;;26.60;58.40;;;;;;4976369;28;91940;-70
2022/07/15 08:41:40;;;;;;;1.40;0.40;;;26.20;58.50;;;;;;4974126;28;95707;-70
2022/07/15 08:44:07;;;;;;;1.15;0.80;;;25.90;59.40;;;;;;4974171;28;95603;-70
2022/07/15 08:46:35;;;;;;;2.58;1.67;;;25.70;60.10;;;;;;4973270;28;97953;-70
2022/07/15 08:49:11;;;;;;;2.25;1.15;;;25.60;60.50;;;;;;4958062;28;92981;-70
2022/07/15 08:51:46;;;;;;;1.65;1.10;;;25.50;60.80;;;;;;4975497;28;93223;-70
2022/07/15 08:54:15;;;;;;;1.80;1.60;;;25.40;61.10;;;;;;4975695;28;92969;-70
2022/07/15 08:56:45;;;;;;;1.38;0.70;;;25.30;62.00;;;;;;4975880;28;92447;-70
2022/07/15 08:59:12;;;;;;;3.28;0.85;;;25.30;61.40;;;;;;4974078;28;92448;-70
2022/07/15 09:01:45;;;;;;;2.75;0.63;;;25.20;61.20;;;;;;4973855;28;95896;-70
2022/07/15 09:04:13;;;;;;;2.85;0.80;;;25.10;61.10;;;;;;4975809;28;91931;-70
2022/07/15 09:06:45;;;;;;;1.25;0.52;;;25.10;61.60;;;;;;4976211;28;92485;-70
2022/07/15 09:09:26;;;;;;;1.60;0.80;;;25.10;61.70;;;;;;4973754;28;92546;-70
2022/07/15 09:12:04;;;;;;;3.38;1.77;;;25.10;62.20;;;;;;4972532;28;98164;-70
2022/07/15 09:14:41;;;;;;;3.35;0.82;;;25.10;62.50;;;;;;4975670;28;95392;-70
2022/07/15 09:17:09;;;;;;;2.03;1.58;;;25.40;62.60;;;;;;4975711;28;93057;-70
2022/07/15 09:20:04;;;;;;;3.20;1.88;;;25.70;61.80;;;;;;4975270;28;92456;-70
2022/07/15 09:22:50;;;;;;;2.42;0.85;;;26.00;61.40;;;;;;4970373;28;95683;-70
2022/07/15 09:25:17;;;;;;;3.05;0.93;;;26.00;61.30;;;;;;4975319;28;93065;-70
2022/07/15 09:27:45;;;;;;;2.22;1.45;;;26.00;61.40;;;;;;4976085;28;92379;-70
2022/07/15 09:33:37;;;;;;;3.17;1.52;;;26.00;60.70;;;;;;4978903;28;93246;-70
2022/07/15 09:36:20;;;;;;;2.15;0.80;;;25.80;60.80;;;;;;4978654;28;93426;-70
2022/07/15 09:38:49;;;;;;;1.95;1.55;;;25.80;60.90;;;;;;4975902;28;94864;-70
2022/07/15 09:41:37;;;;;;;2.90;2.25;;;25.70;61.30;;;;;;4977268;28;93139;-70
2022/07/15 09:44:08;;;;;;;1.77;1.52;;;25.90;60.90;;;;;;4978575;28;93066;-70
2022/07/15 09:46:49;;;;;;;2.53;1.30;;;26.00;60.90;;;;;;4977604;28;92990;-70
2022/07/15 09:49:25;;;;;;;1.55;0.60;;;26.10;60.30;;;;;;4978368;28;92533;-70
2022/07/15 09:51:57;;;;;;;2.80;0.95;;;26.10;59.90;;;;;;4979043;28;92491;-70
2022/07/15 09:54:45;;;;;;;2.63;2.40;;;26.10;60.10;;;;;;4977113;28;93259;-70
2022/07/15 09:57:15;;;;;;;1.63;1.15;;;26.20;59.60;;;;;;4977447;28;93074;-70
2022/07/15 09:59:47;;;;;;;2.55;1.92;;;26.10;59.70;;;;;;4976851;28;92570;-70
2022/07/15 10:02:15;;;;;;;1.95;1.58;;;26.00;60.00;;;;;;4977176;28;93494;-70
2022/07/15 10:04:43;;;;;;;0.82;0.80;;;26.00;60.30;;;;;;4977073;28;95678;-70
2022/07/15 10:07:12;;;;;;;1.33;0.80;;;26.00;60.20;;;;;;4977942;28;100691;-70
2022/07/15 10:09:56;;;;;;;0.75;0.63;;;26.00;59.70;;;;;;4977447;28;92489;-70
2022/07/15 10:12:58;;;;;;;0.82;0.60;;;25.90;60.20;;;;;;4978522;28;92446;-70
2022/07/15 10:16:13;;;;;;;1.27;1.02;;;26.10;60.10;;;;;;4966747;28;93339;-70
2022/07/15 10:19:24;;;;;;;1.65;1.23;;;26.20;59.20;;;;;;4972706;28;93021;-70
2022/07/15 10:22:01;;;;;;;3.08;1.27;;;26.40;58.70;;;;;;4978506;28;92398;-70
2022/07/15 10:24:43;;;;;;;0.80;0.80;;;26.50;58.90;;;;;;4977237;28;91878;-70
2022/07/15 10:27:27;;;;;;;1.92;1.40;;;26.80;57.90;;;;;;4977875;28;92457;-70
2022/07/15 10:30:36;;;;;;;3.88;1.00;;;26.90;57.80;;;;;;4976692;28;95483;-70
2022/07/15 10:33:17;;;;;;;2.25;0.68;;;27.00;57.50;;;;;;4975144;28;94912;-70
2022/07/15 10:35:46;;;;;;;2.03;1.63;;;27.20;56.90;;;;;;4976910;28;92595;-70
2022/07/15 10:38:26;;;;;;;2.28;0.90;;;27.40;56.80;;;;;;4977639;28;93176;-70
2022/07/15 10:40:56;;;;;;;1.25;0.95;;;27.60;56.40;;;;;;4975818;28;95465;-70
2022/07/15 10:43:43;;;;;;;2.47;0.93;;;27.80;55.70;;;;;;4977835;28;92444;-70
2022/07/15 10:46:16;;;;;;;2.63;0.70;;;27.90;54.90;;;;;;4975289;28;92462;-70
2022/07/15 10:48:59;;;;;;;2.33;1.38;;;27.90;55.30;;;;;;4977603;28;93566;-70
2022/07/15 10:51:36;;;;;;;3.88;0.95;;;27.80;54.20;;;;;;4978036;28;93021;-70
2022/07/15 10:54:16;;;;;;;2.63;1.90;;;27.60;55.50;;;;;;4978006;28;92921;-70
2022/07/15 10:56:47;;;;;;;2.80;0.80;;;27.30;55.40;;;;;;4959826;28;95203;-70
2022/07/15 10:59:15;;;;;;;2.25;0.88;;;27.20;56.10;;;;;;4976094;28;95536;-70
2022/07/15 11:01:45;;;;;;;2.42;1.88;;;27.10;56.10;;;;;;4975618;28;97867;-70
2022/07/15 11:04:24;;;;;;;1.90;0.80;;;27.10;55.90;;;;;;4959842;28;92581;-70
2022/07/15 11:07:11;;;;;;;0.82;0.80;;;27.20;54.50;;;;;;4977655;28;92471;-70
2022/07/15 11:09:56;;;;;;;1.48;0.47;;;27.00;54.40;;;;;;4975746;28;94474;-70
2022/07/15 11:12:43;;;;;;;0.70;0.70;;;26.90;53.80;;;;;;4976999;28;93049;-70
2022/07/15 11:15:14;;;;;;;1.08;0.50;;;26.70;55.10;;;;;;4977293;28;92912;-70
2022/07/15 11:17:44;;;;;;;1.52;0.80;;;26.90;55.10;;;;;;4977716;28;91592;-70
2022/07/15 11:20:20;;;;;;;2.28;0.70;;;27.10;55.00;;;;;;4976717;28;93185;-70
2022/07/15 11:22:49;;;;;;;1.52;0.43;;;27.20;54.20;;;;;;4975526;28;97256;-70
2022/07/15 11:25:22;;;;;;;1.00;1.00;;;27.40;54.30;;;;;;4975668;28;94770;-70
2022/07/15 11:28:09;;;;;;;1.52;1.52;;;27.60;54.20;;;;;;4977246;28;92471;-70
2022/07/15 11:30:40;;;;;;;2.10;1.70;;;27.80;52.40;;;;;;4975229;28;93478;-70
2022/07/15 11:33:12;;;;;;;2.53;1.67;;;27.90;52.50;;;;;;4975965;28;93007;-70
2022/07/15 11:35:55;;;;;;;1.38;1.27;;;28.20;52.20;;;;;;4976970;28;92838;-70
2022/07/15 11:38:27;;;;;;;1.85;1.75;;;28.30;51.30;;;;;;4976814;28;92870;-70
2022/07/15 11:46:56;;;;;;;1.52;0.50;;;27.30;52.90;;;;;;4977171;28;92930;-70
2022/07/15 11:49:31;;;;;;;1.98;1.48;;;26.70;53.80;;;;;;4976371;28;92402;-70
2022/07/15 11:51:59;;;;;;;2.85;1.48;;;26.40;54.40;;;;;;4974438;28;95571;-70
2022/07/15 11:54:27;;;;;;;2.88;0.80;;;26.00;55.30;;;;;;4974613;28;97900;-70
2022/07/15 11:57:02;;;;;;;3.53;1.85;;;25.70;56.00;;;;;;4976665;28;92418;-70
2022/07/15 11:59:30;;;;;;;4.93;1.50;;;25.40;57.10;;;;;;4976507;28;92551;-70
2022/07/15 12:02:05;;;;;;;2.22;1.05;;;25.10;57.30;;;;;;4976275;28;93461;-70
2022/07/15 12:04:32;;;;;;;2.30;1.60;;;24.90;58.10;;;;;;4975195;28;92857;-70
2022/07/15 12:06:59;;;;;;;2.33;1.05;;;24.60;58.90;;;;;;4958825;28;92505;-70
2022/07/15 12:09:37;;;;;;;1.48;0.75;;;24.50;59.30;;;;;;4976311;28;102011;-70
2022/07/15 12:12:05;;;;;;;3.08;1.58;;;24.40;59.80;;;;;;4976141;28;93259;-70
2022/07/15 12:14:32;;;;;;;2.25;0.80;;;24.20;60.20;;;;;;4974622;28;104850;-70
2022/07/15 12:16:59;;;;;;;2.15;0.70;;;24.20;60.20;;;;;;4973895;28;95027;-70
2022/07/15 12:19:31;;;;;;;1.67;1.58;;;24.30;60.40;;;;;;4974653;28;92471;-70
2022/07/15 12:22:06;;;;;;;3.75;1.48;;;24.40;60.30;;;;;;4974570;28;95900;-70
2022/07/15 12:24:46;;;;;;;2.00;1.80;;;24.50;60.80;;;;;;4976139;28;92901;-70
2022/07/15 12:27:14;;;;;;;1.83;1.67;;;24.60;60.30;;;;;;4974894;28;92569;-70
2022/07/15 12:29:42;;;;;;;2.45;1.17;;;24.60;60.60;;;;;;4975822;28;92456;-70
2022/07/15 12:32:30;;;;;;;2.53;1.08;;;24.70;60.70;;;;;;4974657;28;93270;-70
2022/07/15 12:34:59;;;;;;;3.47;1.42;;;24.80;60.60;;;;;;4974854;28;93013;-70
2022/07/15 12:37:34;;;;;;;2.08;1.88;;;24.80;61.10;;;;;;4975887;28;92473;-70
2022/07/15 12:40:24;;;;;;;4.50;0.85;;;24.80;60.40;;;;;;4974775;28;92998;-70
2022/07/15 12:42:52;;;;;;;1.25;0.60;;;24.70;60.20;;;;;;4984684;28;95388;-70
2022/07/15 12:45:29;;;;;;;3.00;1.42;;;24.60;60.40;;;;;;4974446;28;96391;-70
2022/07/15 12:48:01;;;;;;;2.35;1.50;;;24.60;60.60;;;;;;4975871;28;92371;-70
2022/07/15 12:50:30;;;;;;;4.63;0.80;;;24.40;60.80;;;;;;4975902;28;92770;-70
2022/07/15 12:52:57;;;;;;;2.60;1.52;;;24.30;60.80;;;;;;4974150;28;93159;-70
2022/07/15 12:55:27;;;;;;;2.00;1.15;;;24.30;60.90;;;;;;4975548;28;92996;-70
2022/07/15 12:58:09;;;;;;;2.92;1.67;;;24.30;60.70;;;;;;4975893;28;92345;-70
2022/07/15 13:00:38;;;;;;;1.55;0.70;;;24.40;61.10;;;;;;4973966;28;93953;-70
2022/07/15 13:03:09;;;;;;;3.13;1.58;;;24.40;60.70;;;;;;4975213;28;93171;-70
2022/07/15 13:05:47;;;;;;;2.25;1.08;;;24.50;59.80;;;;;;4975261;28;92520;-70
2022/07/15 13:08:23;;;;;;;1.45;0.88;;;24.40;59.20;;;;;;4973411;28;94995;-70
2022/07/15 13:10:52;;;;;;;1.15;0.60;;;24.30;60.20;;;;;;4975926;28;92402;-70
2022/07/15 13:13:21;;;;;;;2.85;1.25;;;24.40;60.20;;;;;;4974142;28;93338;-70
2022/07/15 13:15:49;;;;;;;1.75;1.65;;;24.50;58.70;;;;;;4975246;28;92519;-70
2022/07/15 13:18:18;;;;;;;0.98;0.80;;;24.70;57.60;;;;;;4974216;28;92520;-70
2022/07/15 13:20:45;;;;;;;0.70;0.50;;;24.90;57.20;;;;;;4973593;28;101623;-70
2022/07/15 13:23:12;;;;;;;2.10;1.02;;;25.00;57.20;;;;;;4975391;28;93363;-70
2022/07/15 13:25:41;;;;;;;1.60;0.73;;;25.10;57.40;;;;;;4975629;28;91987;-70